sensor_id;sensor_type;location;lat;lon;timestamp;pressure;altitude;pressure_sealevel;temperature;humidity
54262;BME280;40174;52.364;6.452;2023-02-22T00:01:09;101324.81;;;7.29;100.00
54262;BME280;40174;52.364;6.452;2023-02-22T00:03:48;101312.56;;;7.28;100.00
54262;BME280;40174;52.364;6.452;2023-02-22T00:06:17;101317.00;;;7.28;100.00
54262;BME280;40174;52.364;6.452;2023-02-22T00:08:46;101314.19;;;7.31;100.00
54262;BME280;40174;52.364;6.452;2023-02-22T00:11:13;101308.06;;;7.31;100.00
54262;BME280;40174;52.364;6.452;2023-02-22T00:13:41;101310.06;;;7.27;100.00
54262;BME280;40174;52.364;6.452;2023-02-22T00:16:13;101298.69;;;7.26;100.00
54262;BME280;40174;52.364;6.452;2023-02-22T00:18:40;101307.44;;;7.27;100.00
54262;BME280;40174;52.364;6.452;2023-02-22T00:21:09;101294.34;;;7.25;100.00
54262;BME280;40174;52.364;6.452;2023-02-22T00:23:39;101281.28;;;7.24;100.00
54262;BME280;40174;52.364;6.452;2023-02-22T00:26:07;101289.19;;;7.24;100.00
54262;BME280;40174;52.364;6.452;2023-02-22T00:28:35;101290.97;;;7.23;100.00
54262;BME280;40174;52.364;6.452;2023-02-22T00:31:04;101281.41;;;7.22;100.00
54262;BME280;40174;52.364;6.452;2023-02-22T00:33:31;101280.53;;;7.22;100.00
54262;BME280;40174;52.364;6.452;2023-02-22T00:35:58;101284.94;;;7.21;100.00
54262;BME280;40174;52.364;6.452;2023-02-22T00:38:25;101280.44;;;7.23;100.00
54262;BME280;40174;52.364;6.452;2023-02-22T00:40:52;101276.22;;;7.21;100.00
54262;BME280;40174;52.364;6.452;2023-02-22T00:43:19;101273.53;;;7.22;100.00
54262;BME280;40174;52.364;6.452;2023-02-22T00:45:46;101271.06;;;7.19;100.00
54262;BME280;40174;52.364;6.452;2023-02-22T00:48:14;101273.69;;;7.19;100.00
54262;BME280;40174;52.364;6.452;2023-02-22T00:50:41;101271.06;;;7.19;100.00
54262;BME280;40174;52.364;6.452;2023-02-22T00:53:09;101262.25;;;7.20;100.00
54262;BME280;40174;52.364;6.452;2023-02-22T00:55:37;101260.66;;;7.18;100.00
54262;BME280;40174;52.364;6.452;2023-02-22T00:58:04;101259.69;;;7.19;100.00
54262;BME280;40174;52.364;6.452;2023-02-22T01:00:34;101260.66;;;7.18;100.00
54262;BME280;40174;52.364;6.452;2023-02-22T01:03:01;101258.03;;;7.18;100.00
54262;BME280;40174;52.364;6.452;2023-02-22T01:05:30;101260.66;;;7.18;100.00
54262;BME280;40174;52.364;6.452;2023-02-22T01:07:58;101257.06;;;7.19;100.00
54262;BME280;40174;52.364;6.452;2023-02-22T01:10:28;101268.53;;;7.18;100.00
54262;BME280;40174;52.364;6.452;2023-02-22T01:12:56;101266.81;;;7.17;100.00
54262;BME280;40174;52.364;6.452;2023-02-22T01:15:25;101260.66;;;7.18;100.00
54262;BME280;40174;52.364;6.452;2023-02-22T01:17:53;101270.41;;;7.16;100.00
54262;BME280;40174;52.364;6.452;2023-02-22T01:20:21;101259.97;;;7.14;100.00
54262;BME280;40174;52.364;6.452;2023-02-22T01:22:52;101260.06;;;7.13;100.00
54262;BME280;40174;52.364;6.452;2023-02-22T01:25:20;101258.28;;;7.13;100.00
54262;BME280;40174;52.364;6.452;2023-02-22T01:27:47;101259.13;;;7.14;100.00
54262;BME280;40174;52.364;6.452;2023-02-22T01:30:20;101267.00;;;7.14;100.00
54262;BME280;40174;52.364;6.452;2023-02-22T01:32:47;101260.16;;;7.11;100.00
54262;BME280;40174;52.364;6.452;2023-02-22T01:35:18;101250.47;;;7.12;100.00
54262;BME280;40174;52.364;6.452;2023-02-22T01:37:45;101250.47;;;7.12;100.00
54262;BME280;40174;52.364;6.452;2023-02-22T01:40:20;101251.31;;;7.12;100.00
54262;BME280;40174;52.364;6.452;2023-02-22T01:42:48;101241.91;;;7.08;100.00
54262;BME280;40174;52.364;6.452;2023-02-22T01:45:46;101234.16;;;7.06;100.00
54262;BME280;40174;52.364;6.452;2023-02-22T01:48:17;101239.41;;;7.06;100.00
54262;BME280;40174;52.364;6.452;2023-02-22T01:50:48;101240.31;;;7.05;100.00
54262;BME280;40174;52.364;6.452;2023-02-22T01:53:19;101231.69;;;7.03;100.00
54262;BME280;40174;52.364;6.452;2023-02-22T01:55:49;101242.19;;;7.03;100.00
54262;BME280;40174;52.364;6.452;2023-02-22T01:58:20;101235.16;;;7.04;100.00
54262;BME280;40174;52.364;6.452;2023-02-22T02:00:49;101237.97;;;7.01;100.00
54262;BME280;40174;52.364;6.452;2023-02-22T02:03:19;101230.00;;;7.02;100.00
54262;BME280;40174;52.364;6.452;2023-02-22T02:05:49;101223.22;;;6.98;100.00
54262;BME280;40174;52.364;6.452;2023-02-22T02:08:26;101223.91;;;7.02;100.00
54262;BME280;40174;52.364;6.452;2023-02-22T02:10:58;101224.19;;;6.97;100.00
54262;BME280;40174;52.364;6.452;2023-02-22T02:13:26;101212.78;;;6.97;100.00
54262;BME280;40174;52.364;6.452;2023-02-22T02:15:54;101217.97;;;6.98;100.00
54262;BME280;40174;52.364;6.452;2023-02-22T02:18:21;101214.50;;;6.98;100.00
54262;BME280;40174;52.364;6.452;2023-02-22T02:21:05;101215.44;;;6.97;100.00
54262;BME280;40174;52.364;6.452;2023-02-22T02:27:11;101211.03;;;6.97;100.00
54262;BME280;40174;52.364;6.452;2023-02-22T02:30:02;101209.41;;;6.95;100.00
54262;BME280;40174;52.364;6.452;2023-02-22T02:32:44;101206.91;;;6.93;100.00
54262;BME280;40174;52.364;6.452;2023-02-22T02:35:19;101200.03;;;6.91;100.00
54262;BME280;40174;52.364;6.452;2023-02-22T02:37:55;101198.34;;;6.90;100.00
54262;BME280;40174;52.364;6.452;2023-02-22T02:40:27;101200.13;;;6.89;100.00
54262;BME280;40174;52.364;6.452;2023-02-22T02:43:00;101191.47;;;6.87;100.00
54262;BME280;40174;52.364;6.452;2023-02-22T02:45:35;101183.78;;;6.84;100.00
54262;BME280;40174;52.364;6.452;2023-02-22T02:48:08;101187.41;;;6.81;100.00
54262;BME280;40174;52.364;6.452;2023-02-22T02:50:40;101179.66;;;6.80;100.00
54262;BME280;40174;52.364;6.452;2023-02-22T02:53:08;101183.88;;;6.82;100.00
54262;BME280;40174;52.364;6.452;2023-02-22T02:55:36;101180.56;;;6.79;100.00
54262;BME280;40174;52.364;6.452;2023-02-22T02:58:03;101175.31;;;6.79;100.00
54262;BME280;40174;52.364;6.452;2023-02-22T03:00:35;101176.81;;;6.83;100.00
54262;BME280;40174;52.364;6.452;2023-02-22T03:03:21;101173.63;;;6.78;100.00
54262;BME280;40174;52.364;6.452;2023-02-22T03:06:10;101178.31;;;6.73;100.00
54262;BME280;40174;52.364;6.452;2023-02-22T03:08:43;101170.69;;;6.68;100.00
54262;BME280;40174;52.364;6.452;2023-02-22T03:11:13;101169.94;;;6.66;100.00
54262;BME280;40174;52.364;6.452;2023-02-22T03:13:49;101167.91;;;6.71;100.00
54262;BME280;40174;52.364;6.452;2023-02-22T03:16:26;101159.34;;;6.68;100.00
54262;BME280;40174;52.364;6.452;2023-02-22T03:19:05;101157.75;;;6.65;100.00
54262;BME280;40174;52.364;6.452;2023-02-22T03:21:42;101150.88;;;6.62;100.00
54262;BME280;40174;52.364;6.452;2023-02-22T03:24:18;101143.97;;;6.61;100.00
54262;BME280;40174;52.364;6.452;2023-02-22T03:26:50;101147.44;;;6.62;100.00
54262;BME280;40174;52.364;6.452;2023-02-22T03:29:21;101137.06;;;6.59;100.00
54262;BME280;40174;52.364;6.452;2023-02-22T03:31:54;101136.25;;;6.58;100.00
54262;BME280;40174;52.364;6.452;2023-02-22T03:34:31;101146.31;;;6.66;100.00
54262;BME280;40174;52.364;6.452;2023-02-22T03:37:01;101139.63;;;6.60;100.00
54262;BME280;40174;52.364;6.452;2023-02-22T03:39:30;101145.81;;;6.59;100.00
54262;BME280;40174;52.364;6.452;2023-02-22T03:42:03;101142.34;;;6.59;100.00
54262;BME280;40174;52.364;6.452;2023-02-22T03:44:34;101142.34;;;6.59;100.00
54262;BME280;40174;52.364;6.452;2023-02-22T03:47:06;101145.06;;;6.57;100.00
54262;BME280;40174;52.364;6.452;2023-02-22T03:49:39;101135.41;;;6.58;100.00
54262;BME280;40174;52.364;6.452;2023-02-22T03:52:08;101133.69;;;6.57;100.00
54262;BME280;40174;52.364;6.452;2023-02-22T03:54:37;101129.31;;;6.57;100.00
54262;BME280;40174;52.364;6.452;2023-02-22T03:57:07;101121.50;;;6.56;100.00
54262;BME280;40174;52.364;6.452;2023-02-22T03:59:40;101133.69;;;6.57;100.00
54262;BME280;40174;52.364;6.452;2023-02-22T04:02:07;101127.53;;;6.58;100.00
54262;BME280;40174;52.364;6.452;2023-02-22T04:04:35;101122.47;;;6.55;100.00
54262;BME280;40174;52.364;6.452;2023-02-22T04:07:02;101124.22;;;6.54;100.00
54262;BME280;40174;52.364;6.452;2023-02-22T04:09:29;101127.03;;;6.51;100.00
54262;BME280;40174;52.364;6.452;2023-02-22T04:11:56;101124.50;;;6.50;100.00
54262;BME280;40174;52.364;6.452;2023-02-22T04:14:23;101114.81;;;6.50;100.00
54262;BME280;40174;52.364;6.452;2023-02-22T04:16:50;101117.56;;;6.49;100.00
54262;BME280;40174;52.364;6.452;2023-02-22T04:19:17;101122.81;;;6.49;100.00
54262;BME280;40174;52.364;6.452;2023-02-22T04:21:45;101113.34;;;6.46;100.00
54262;BME280;40174;52.364;6.452;2023-02-22T04:24:18;101117.63;;;6.47;100.00
54262;BME280;40174;52.364;6.452;2023-02-22T04:26:46;101115.09;;;6.45;100.00
54262;BME280;40174;52.364;6.452;2023-02-22T04:29:13;101123.84;;;6.46;100.00
54262;BME280;40174;52.364;6.452;2023-02-22T04:31:42;101119.44;;;6.47;100.00
54262;BME280;40174;52.364;6.452;2023-02-22T04:34:09;101119.69;;;6.42;100.00
54262;BME280;40174;52.364;6.452;2023-02-22T04:36:38;101120.53;;;6.42;100.00
54262;BME280;40174;52.364;6.452;2023-02-22T04:39:08;101118.94;;;6.40;100.00
54262;BME280;40174;52.364;6.452;2023-02-22T04:41:34;101121.56;;;6.40;100.00
54262;BME280;40174;52.364;6.452;2023-02-22T04:44:02;101114.72;;;6.37;100.00
54262;BME280;40174;52.364;6.452;2023-02-22T04:46:30;101114.78;;;6.36;100.00
54262;BME280;40174;52.364;6.452;2023-02-22T04:48:57;101106.91;;;6.36;100.00
54262;BME280;40174;52.364;6.452;2023-02-22T04:51:27;101108.88;;;6.32;100.00
54262;BME280;40174;52.364;6.452;2023-02-22T04:54:21;101099.31;;;6.31;100.00
54262;BME280;40174;52.364;6.452;2023-02-22T04:56:48;101098.63;;;6.28;100.00
54262;BME280;40174;52.364;6.452;2023-02-22T04:59:15;101105.66;;;6.27;100.00
54262;BME280;40174;52.364;6.452;2023-02-22T05:01:44;101103.16;;;6.26;100.00
54262;BME280;40174;52.364;6.452;2023-02-22T05:04:11;101103.22;;;6.24;100.00
54262;BME280;40174;52.364;6.452;2023-02-22T05:06:37;101102.41;;;6.23;100.00
54262;BME280;40174;52.364;6.452;2023-02-22T05:09:04;101100.75;;;6.21;100.00
54262;BME280;40174;52.364;6.452;2023-02-22T05:11:32;101092.16;;;6.19;100.00
54262;BME280;40174;52.364;6.452;2023-02-22T05:13:58;101097.41;;;6.19;100.00
54262;BME280;40174;52.364;6.452;2023-02-22T05:16:25;101096.72;;;6.15;100.00
54262;BME280;40174;52.364;6.452;2023-02-22T05:18:52;101081.91;;;6.14;100.00
54262;BME280;40174;52.364;6.452;2023-02-22T05:21:18;101089.97;;;6.11;100.00
54262;BME280;40174;52.364;6.452;2023-02-22T05:23:45;101092.59;;;6.11;100.00
54262;BME280;40174;52.364;6.452;2023-02-22T05:26:11;101076.09;;;6.09;100.00
54262;BME280;40174;52.364;6.452;2023-02-22T05:28:39;101085.81;;;6.07;100.00
54262;BME280;40174;52.364;6.452;2023-02-22T05:31:06;101083.31;;;6.06;100.00
54262;BME280;40174;52.364;6.452;2023-02-22T05:33:33;101076.34;;;6.04;100.00
54262;BME280;40174;52.364;6.452;2023-02-22T05:36:00;101072.03;;;6.03;100.00
54262;BME280;40174;52.364;6.452;2023-02-22T05:38:27;101070.34;;;6.02;100.00
54262;BME280;40174;52.364;6.452;2023-02-22T05:40:53;101064.25;;;6.02;100.00
54262;BME280;40174;52.364;6.452;2023-02-22T05:43:21;101061.63;;;6.02;100.00
54262;BME280;40174;52.364;6.452;2023-02-22T05:45:49;101052.22;;;5.98;100.00
54262;BME280;40174;52.364;6.452;2023-02-22T05:48:15;101046.22;;;5.96;100.00
54262;BME280;40174;52.364;6.452;2023-02-22T05:50:42;101042.81;;;5.94;100.00
54262;BME280;40174;52.364;6.452;2023-02-22T05:53:09;101050.69;;;5.94;100.00
54262;BME280;40174;52.364;6.452;2023-02-22T05:55:35;101049.84;;;5.93;100.00
54262;BME280;40174;52.364;6.452;2023-02-22T05:58:02;101046.47;;;5.91;100.00
54262;BME280;40174;52.364;6.452;2023-02-22T06:00:30;101046.38;;;5.93;100.00
54262;BME280;40174;52.364;6.452;2023-02-22T06:03:00;101043.75;;;5.93;100.00
54262;BME280;40174;52.364;6.452;2023-02-22T06:05:27;101043.06;;;5.89;100.00
54262;BME280;40174;52.364;6.452;2023-02-22T06:07:54;101040.63;;;5.86;100.00
54262;BME280;40174;52.364;6.452;2023-02-22T06:10:22;101041.47;;;5.87;100.00
54262;BME280;40174;52.364;6.452;2023-02-22T06:12:49;101049.53;;;5.83;100.00
54262;BME280;40174;52.364;6.452;2023-02-22T06:15:17;101039.03;;;5.83;100.00
54262;BME280;40174;52.364;6.452;2023-02-22T06:17:44;101053.00;;;5.84;100.00
54262;BME280;40174;52.364;6.452;2023-02-22T06:20:16;101038.03;;;5.86;100.00
54262;BME280;40174;52.364;6.452;2023-02-22T06:22:43;101039.19;;;5.80;100.00
54262;BME280;40174;52.364;6.452;2023-02-22T06:25:13;101036.69;;;5.79;100.00
54262;BME280;40174;52.364;6.452;2023-02-22T06:27:40;101035.09;;;5.76;100.00
54262;BME280;40174;52.364;6.452;2023-02-22T06:30:08;101043.03;;;5.75;100.00
54262;BME280;40174;52.364;6.452;2023-02-22T06:32:36;101041.16;;;5.77;100.00
54262;BME280;40174;52.364;6.452;2023-02-22T06:35:03;101026.34;;;5.76;100.00
54262;BME280;40174;52.364;6.452;2023-02-22T06:37:31;101036.94;;;5.74;100.00
54262;BME280;40174;52.364;6.452;2023-02-22T06:39:58;101045.47;;;5.78;100.00
54262;BME280;40174;52.364;6.452;2023-02-22T06:42:24;101037.97;;;5.72;100.00
54262;BME280;40174;52.364;6.452;2023-02-22T06:44:51;101043.22;;;5.72;100.00
54262;BME280;40174;52.364;6.452;2023-02-22T06:47:18;101044.97;;;5.71;100.00
54262;BME280;40174;52.364;6.452;2023-02-22T06:49:44;101043.94;;;5.74;100.00
54262;BME280;40174;52.364;6.452;2023-02-22T06:52:11;101031.84;;;5.71;100.00
54262;BME280;40174;52.364;6.452;2023-02-22T06:54:39;101030.25;;;5.69;100.00
54262;BME280;40174;52.364;6.452;2023-02-22T06:57:05;101033.72;;;5.69;100.00
54262;BME280;40174;52.364;6.452;2023-02-22T06:59:34;101031.28;;;5.66;100.00
54262;BME280;40174;52.364;6.452;2023-02-22T07:02:01;101021.63;;;5.67;100.00
54262;BME280;40174;52.364;6.452;2023-02-22T07:04:28;101033.06;;;5.66;100.00
54262;BME280;40174;52.364;6.452;2023-02-22T07:06:54;101023.22;;;5.69;100.00
54262;BME280;40174;52.364;6.452;2023-02-22T07:09:21;101026.88;;;5.67;100.00
54262;BME280;40174;52.364;6.452;2023-02-22T07:11:49;101025.09;;;5.67;100.00
54262;BME280;40174;52.364;6.452;2023-02-22T07:14:16;101011.97;;;5.67;100.00
54262;BME280;40174;52.364;6.452;2023-02-22T07:16:42;101010.22;;;5.68;100.00
54262;BME280;40174;52.364;6.452;2023-02-22T07:19:09;101011.81;;;5.70;100.00
54262;BME280;40174;52.364;6.452;2023-02-22T07:21:36;101029.34;;;5.70;100.00
54262;BME280;40174;52.364;6.452;2023-02-22T07:24:03;101023.84;;;5.74;100.00
54262;BME280;40174;52.364;6.452;2023-02-22T07:26:30;101022.88;;;5.75;100.00
54262;BME280;40174;52.364;6.452;2023-02-22T07:28:57;101029.06;;;5.74;100.00
54262;BME280;40174;52.364;6.452;2023-02-22T07:31:24;101032.63;;;5.73;100.00
54262;BME280;40174;52.364;6.452;2023-02-22T07:33:51;101024.66;;;5.75;100.00
54262;BME280;40174;52.364;6.452;2023-02-22T07:36:17;101033.44;;;5.74;100.00
54262;BME280;40174;52.364;6.452;2023-02-22T07:38:44;101028.22;;;5.74;100.00
54262;BME280;40174;52.364;6.452;2023-02-22T07:41:11;101029.91;;;5.75;100.00
54262;BME280;40174;52.364;6.452;2023-02-22T07:43:38;101025.31;;;5.78;100.00
54262;BME280;40174;52.364;6.452;2023-02-22T07:46:06;101024.66;;;5.75;100.00
54262;BME280;40174;52.364;6.452;2023-02-22T07:48:32;101022.13;;;5.73;100.00
54262;BME280;40174;52.364;6.452;2023-02-22T07:50:59;101028.13;;;5.75;100.00
54262;BME280;40174;52.364;6.452;2023-02-22T07:53:27;101025.31;;;5.78;100.00
54262;BME280;40174;52.364;6.452;2023-02-22T07:55:55;101026.25;;;5.77;100.00
54262;BME280;40174;52.364;6.452;2023-02-22T07:58:24;101021.09;;;5.76;100.00
54262;BME280;40174;52.364;6.452;2023-02-22T08:00:51;101019.44;;;5.75;100.00
54262;BME280;40174;52.364;6.452;2023-02-22T08:03:21;101015.78;;;5.77;100.00
54262;BME280;40174;52.364;6.452;2023-02-22T08:05:50;101009.69;;;5.77;100.00
54262;BME280;40174;52.364;6.452;2023-02-22T08:08:17;101006.97;;;5.78;100.00
54262;BME280;40174;52.364;6.452;2023-02-22T08:10:43;101010.34;;;5.80;100.00
54262;BME280;40174;52.364;6.452;2023-02-22T08:13:10;101007.91;;;5.77;100.00
54262;BME280;40174;52.364;6.452;2023-02-22T08:15:38;101009.25;;;5.84;100.00
54262;BME280;40174;52.364;6.452;2023-02-22T08:18:06;101007.44;;;5.85;100.00
54262;BME280;40174;52.364;6.452;2023-02-22T08:20:36;100989.00;;;5.87;100.00
54262;BME280;40174;52.364;6.452;2023-02-22T08:23:04;101007.44;;;5.85;100.00
54262;BME280;40174;52.364;6.452;2023-02-22T08:25:30;100998.94;;;5.81;100.00
54262;BME280;40174;52.364;6.452;2023-02-22T08:27:58;101012.63;;;5.87;100.00
54262;BME280;40174;52.364;6.452;2023-02-22T08:30:27;101012.69;;;5.85;100.00
54262;BME280;40174;52.364;6.452;2023-02-22T08:32:54;101010.06;;;5.85;100.00
54262;BME280;40174;52.364;6.452;2023-02-22T08:35:21;101009.25;;;5.84;100.00
54262;BME280;40174;52.364;6.452;2023-02-22T08:37:51;101007.56;;;5.83;100.00
54262;BME280;40174;52.364;6.452;2023-02-22T08:40:20;101014.34;;;5.88;100.00
54262;BME280;40174;52.364;6.452;2023-02-22T08:42:47;101013.38;;;5.89;100.00
54262;BME280;40174;52.364;6.452;2023-02-22T08:45:14;101011.03;;;5.84;100.00
54262;BME280;40174;52.364;6.452;2023-02-22T08:47:44;101004.94;;;5.83;100.00
54262;BME280;40174;52.364;6.452;2023-02-22T08:50:15;101009.16;;;5.86;100.00
54262;BME280;40174;52.364;6.452;2023-02-22T08:52:43;101004.75;;;5.87;100.00
54262;BME280;40174;52.364;6.452;2023-02-22T08:55:11;101003.22;;;5.82;100.00
54262;BME280;40174;52.364;6.452;2023-02-22T08:57:39;101008.41;;;5.84;100.00
54262;BME280;40174;52.364;6.452;2023-02-22T09:00:07;100995.28;;;5.84;100.00
54262;BME280;40174;52.364;6.452;2023-02-22T09:02:33;101003.34;;;5.81;100.00
54262;BME280;40174;52.364;6.452;2023-02-22T09:05:00;100998.94;;;5.81;100.00
54262;BME280;40174;52.364;6.452;2023-02-22T09:07:27;101010.84;;;5.87;100.00
54262;BME280;40174;52.364;6.452;2023-02-22T09:09:53;101001.22;;;5.88;100.00
54262;BME280;40174;52.364;6.452;2023-02-22T09:12:21;101003.66;;;5.91;100.00
54262;BME280;40174;52.364;6.452;2023-02-22T09:14:48;101002.13;;;5.87;100.00
54262;BME280;40174;52.364;6.452;2023-02-22T09:17:14;101008.97;;;5.89;100.00
54262;BME280;40174;52.364;6.452;2023-02-22T09:19:41;101010.69;;;5.90;100.00
54262;BME280;40174;52.364;6.452;2023-02-22T09:22:09;101013.31;;;5.90;100.00
54262;BME280;40174;52.364;6.452;2023-02-22T09:24:36;101014.06;;;5.92;100.00
54262;BME280;40174;52.364;6.452;2023-02-22T09:27:03;101003.47;;;5.94;100.00
54262;BME280;40174;52.364;6.452;2023-02-22T09:29:32;101017.38;;;5.96;100.00
54262;BME280;40174;52.364;6.452;2023-02-22T09:31:59;101008.06;;;5.90;100.00
54262;BME280;40174;52.364;6.452;2023-02-22T09:34:26;101005.25;;;5.93;100.00
54262;BME280;40174;52.364;6.452;2023-02-22T09:36:54;100994.69;;;5.95;100.00
54262;BME280;40174;52.364;6.452;2023-02-22T09:39:22;100989.47;;;5.95;100.00
54262;BME280;40174;52.364;6.452;2023-02-22T09:41:56;100989.84;;;6.03;100.00
54262;BME280;40174;52.364;6.452;2023-02-22T09:44:34;100990.84;;;6.00;100.00
54262;BME280;40174;52.364;6.452;2023-02-22T09:47:03;100979.19;;;6.06;100.00
54262;BME280;40174;52.364;6.452;2023-02-22T09:49:36;100974.84;;;6.05;100.00
54262;BME280;40174;52.364;6.452;2023-02-22T09:52:07;100973.72;;;6.09;100.00
54262;BME280;40174;52.364;6.452;2023-02-22T09:54:42;100976.47;;;6.08;100.00
54262;BME280;40174;52.364;6.452;2023-02-22T09:57:13;100986.78;;;6.11;100.00
54262;BME280;40174;52.364;6.452;2023-02-22T09:59:46;100991.94;;;6.12;100.00
54262;BME280;40174;52.364;6.452;2023-02-22T10:02:22;100998.03;;;6.13;100.00
54262;BME280;40174;52.364;6.452;2023-02-22T10:04:56;100979.53;;;6.14;100.00
54262;BME280;40174;52.364;6.452;2023-02-22T10:07:29;100981.16;;;6.17;100.00
54262;BME280;40174;52.364;6.452;2023-02-22T10:09:58;100981.06;;;6.18;100.00
54262;BME280;40174;52.364;6.452;2023-02-22T10:12:38;100980.63;;;6.26;100.00
54262;BME280;40174;52.364;6.452;2023-02-22T10:15:39;100981.81;;;6.20;100.00
54262;BME280;40174;52.364;6.452;2023-02-22T10:18:37;100972.06;;;6.22;100.00
54262;BME280;40174;52.364;6.452;2023-02-22T10:21:14;100967.56;;;6.24;100.00
54262;BME280;40174;52.364;6.452;2023-02-22T10:23:52;100963.09;;;6.27;100.00
54262;BME280;40174;52.364;6.452;2023-02-22T10:26:24;100959.41;;;6.29;100.00
54262;BME280;40174;52.364;6.452;2023-02-22T10:28:53;100967.97;;;6.33;100.00
54262;BME280;40174;52.364;6.452;2023-02-22T10:31:26;100967.69;;;6.37;100.00
54262;BME280;40174;52.364;6.452;2023-02-22T10:33:57;100966.56;;;6.41;100.00
54262;BME280;40174;52.364;6.452;2023-02-22T10:36:25;100971.06;;;6.39;100.00
54262;BME280;40174;52.364;6.452;2023-02-22T10:38:54;100976.13;;;6.42;100.00
54262;BME280;40174;52.364;6.452;2023-02-22T10:41:27;100966.47;;;6.43;100.00
54262;BME280;40174;52.364;6.452;2023-02-22T10:43:55;100967.97;;;6.47;100.00
54262;BME280;40174;52.364;6.452;2023-02-22T10:46:26;100970.31;;;6.52;100.00
54262;BME280;40174;52.364;6.452;2023-02-22T10:48:55;100967.41;;;6.56;100.00
54262;BME280;40174;52.364;6.452;2023-02-22T10:51:24;100969.28;;;6.54;100.00
54262;BME280;40174;52.364;6.452;2023-02-22T10:53:57;100967.41;;;6.56;100.00
54262;BME280;40174;52.364;6.452;2023-02-22T10:56:26;100972.28;;;6.62;100.00
54262;BME280;40174;52.364;6.452;2023-02-22T10:58:54;100955.56;;;6.63;100.00
54262;BME280;40174;52.364;6.452;2023-02-22T11:01:33;100944.78;;;6.68;100.00
54262;BME280;40174;52.364;6.452;2023-02-22T11:04:10;100949.50;;;6.77;100.00
54262;BME280;40174;52.364;6.452;2023-02-22T11:06:38;100942.78;;;6.86;100.00
54262;BME280;40174;52.364;6.452;2023-02-22T11:09:09;100947.66;;;6.92;100.00
54262;BME280;40174;52.364;6.452;2023-02-22T11:11:37;100953.59;;;6.96;100.00
54262;BME280;40174;52.364;6.452;2023-02-22T11:14:04;100951.41;;;7.02;100.00
54262;BME280;40174;52.364;6.452;2023-02-22T11:16:34;100956.38;;;7.07;100.00
54262;BME280;40174;52.364;6.452;2023-02-22T11:19:09;100955.03;;;7.14;100.00
54262;BME280;40174;52.364;6.452;2023-02-22T11:21:38;100943.47;;;7.17;100.00
54262;BME280;40174;52.364;6.452;2023-02-22T11:24:07;100948.56;;;7.20;100.00
54262;BME280;40174;52.364;6.452;2023-02-22T11:26:39;100938.66;;;7.23;100.00
54262;BME280;40174;52.364;6.452;2023-02-22T11:29:14;100920.63;;;7.32;100.00
54262;BME280;40174;52.364;6.452;2023-02-22T11:31:45;100921.16;;;7.37;100.00
54262;BME280;40174;52.364;6.452;2023-02-22T11:34:32;100910.25;;;7.43;100.00
54262;BME280;40174;52.364;6.452;2023-02-22T11:37:15;100906.25;;;7.50;100.00
54262;BME280;40174;52.364;6.452;2023-02-22T11:39:43;100892.59;;;7.58;100.00
54262;BME280;40174;52.364;6.452;2023-02-22T11:42:19;100906.16;;;7.64;100.00
54262;BME280;40174;52.364;6.452;2023-02-22T11:44:47;100892.63;;;7.70;100.00
54262;BME280;40174;52.364;6.452;2023-02-22T11:47:15;100895.91;;;7.74;100.00
54262;BME280;40174;52.364;6.452;2023-02-22T11:49:43;100897.91;;;7.83;100.00
54262;BME280;40174;52.364;6.452;2023-02-22T11:52:18;100887.81;;;7.90;100.00
54262;BME280;40174;52.364;6.452;2023-02-22T11:55:04;100889.81;;;7.99;100.00
54262;BME280;40174;52.364;6.452;2023-02-22T11:57:54;100884.56;;;8.12;100.00
54262;BME280;40174;52.364;6.452;2023-02-22T12:00:30;100869.16;;;8.19;100.00
54262;BME280;40174;52.364;6.452;2023-02-22T12:03:31;100866.94;;;8.25;100.00
54262;BME280;40174;52.364;6.452;2023-02-22T12:06:09;100865.75;;;8.29;100.00
54262;BME280;40174;52.364;6.452;2023-02-22T12:08:47;100878.50;;;8.36;100.00
54262;BME280;40174;52.364;6.452;2023-02-22T12:11:21;100875.16;;;8.46;100.00
54262;BME280;40174;52.364;6.452;2023-02-22T12:14:06;100878.50;;;8.61;100.00
54262;BME280;40174;52.364;6.452;2023-02-22T12:16:47;100874.75;;;8.77;100.00
54262;BME280;40174;52.364;6.452;2023-02-22T12:19:26;100880.31;;;8.85;100.00
54262;BME280;40174;52.364;6.452;2023-02-22T12:21:57;100867.69;;;9.01;100.00
54262;BME280;40174;52.364;6.452;2023-02-22T12:24:30;100874.16;;;9.21;100.00
54262;BME280;40174;52.364;6.452;2023-02-22T12:27:01;100880.09;;;9.36;100.00
54262;BME280;40174;52.364;6.452;2023-02-22T12:29:33;100878.13;;;9.51;100.00
54262;BME280;40174;52.364;6.452;2023-02-22T12:32:06;100883.41;;;9.51;100.00
54262;BME280;40174;52.364;6.452;2023-02-22T12:34:38;100879.94;;;9.62;100.00
54262;BME280;40174;52.364;6.452;2023-02-22T12:37:12;100882.38;;;9.76;100.00
54262;BME280;40174;52.364;6.452;2023-02-22T12:39:48;100884.44;;;9.84;100.00
54262;BME280;40174;52.364;6.452;2023-02-22T12:42:17;100882.41;;;9.98;100.00
54262;BME280;40174;52.364;6.452;2023-02-22T12:44:52;100877.50;;;10.05;100.00
54262;BME280;40174;52.364;6.452;2023-02-22T12:47:22;100871.63;;;10.02;100.00
54262;BME280;40174;52.364;6.452;2023-02-22T12:49:58;100871.50;;;10.03;100.00
54262;BME280;40174;52.364;6.452;2023-02-22T12:52:38;100870.31;;;10.07;100.00
54262;BME280;40174;52.364;6.452;2023-02-22T12:55:11;100869.69;;;10.04;100.00
54262;BME280;40174;52.364;6.452;2023-02-22T12:57:45;100865.97;;;10.06;100.00
54262;BME280;40174;52.364;6.452;2023-02-22T13:00:16;100859.75;;;10.07;100.00
54262;BME280;40174;52.364;6.452;2023-02-22T13:02:54;100870.06;;;10.10;100.00
54262;BME280;40174;52.364;6.452;2023-02-22T13:05:24;100865.50;;;10.12;100.00
54262;BME280;40174;52.364;6.452;2023-02-22T13:08:05;100861.91;;;10.13;100.00
54262;BME280;40174;52.364;6.452;2023-02-22T13:10:56;100867.78;;;10.17;100.00